createdAt,value
2019-04-29T00:02:07.302Z,32.86
2019-04-29T00:04:35.572Z,32.87
2019-04-29T00:07:03.502Z,32.66
2019-04-29T00:09:31.503Z,33.26
2019-04-29T00:11:59.461Z,32.92
2019-04-29T00:14:27.469Z,32.86
2019-04-29T00:17:17.466Z,32.91
2019-04-29T00:20:07.088Z,33.30
2019-04-29T00:22:35.106Z,33.44
2019-04-29T00:25:03.112Z,32.82
2019-04-29T00:27:30.884Z,32.96
2019-04-29T00:29:58.679Z,31.61
2019-04-29T00:32:26.705Z,33.22
2019-04-29T00:34:54.795Z,33.15
2019-04-29T00:37:40.311Z,32.25
2019-04-29T00:40:30.080Z,33.02
2019-04-29T00:43:20.263Z,33.56
2019-04-29T00:45:48.167Z,33.03
2019-04-29T00:48:16.077Z,33.38
2019-04-29T00:50:43.968Z,33.30
2019-04-29T00:53:11.989Z,32.63
2019-04-29T00:55:40.037Z,33.12
2019-04-29T00:58:08.073Z,33.38
2019-04-29T01:00:38.516Z,33.03
2019-04-29T01:03:06.777Z,32.90
2019-04-29T01:05:34.898Z,33.53
2019-04-29T01:08:02.873Z,33.69
2019-04-29T01:10:30.939Z,32.38
2019-04-29T01:12:58.765Z,33.43
2019-04-29T01:15:26.756Z,33.51
2019-04-29T01:17:54.646Z,33.39
2019-04-29T01:20:22.518Z,33.68
2019-04-29T01:22:50.466Z,33.68
2019-04-29T01:25:19.593Z,33.08
2019-04-29T01:27:53.532Z,33.13
2019-04-29T01:30:39.652Z,33.57
2019-04-29T01:33:07.546Z,33.45
2019-04-29T01:35:35.498Z,32.42
2019-04-29T01:38:03.479Z,33.78
2019-04-29T01:40:53.116Z,33.69
2019-04-29T01:43:21.034Z,33.58
2019-04-29T01:45:48.984Z,32.81
2019-04-29T01:48:16.893Z,33.60
2019-04-29T01:50:44.834Z,34.03
2019-04-29T01:53:12.878Z,32.87
2019-04-29T01:55:40.848Z,32.36
2019-04-29T01:58:08.627Z,33.07
2019-04-29T02:00:36.661Z,31.85
2019-04-29T02:03:04.560Z,33.95
2019-04-29T02:05:32.479Z,31.78
2019-04-29T02:08:00.488Z,33.09
2019-04-29T02:10:33.488Z,33.87
2019-04-29T02:13:01.625Z,33.69
2019-04-29T02:15:29.706Z,33.12
2019-04-29T02:17:57.687Z,33.36
2019-04-29T02:20:26.009Z,33.89
2019-04-29T02:23:11.919Z,33.81
2019-04-29T02:25:41.772Z,33.44
2019-04-29T02:28:09.838Z,33.55
2019-04-29T02:30:41.028Z,33.42
2019-04-29T02:33:08.939Z,33.23
2019-04-29T02:35:36.756Z,33.54
2019-04-29T02:38:06.458Z,33.21
2019-04-29T02:40:40.765Z,32.96
2019-04-29T02:43:13.578Z,34.08
2019-04-29T02:45:41.739Z,32.96
2019-04-29T02:48:09.537Z,33.42
2019-04-29T02:50:37.297Z,33.06
2019-04-29T02:53:05.286Z,33.94
2019-04-29T02:55:38.054Z,33.83
2019-04-29T02:58:12.703Z,32.95
2019-04-29T03:00:59.887Z,32.92
2019-04-29T03:03:45.500Z,33.45
2019-04-29T03:06:13.353Z,33.24
2019-04-29T03:08:41.217Z,33.60
2019-04-29T03:11:09.113Z,33.67
2019-04-29T03:13:36.982Z,33.08
2019-04-29T03:16:04.854Z,33.17
2019-04-29T03:18:34.873Z,33.81
2019-04-29T03:21:21.817Z,33.55
2019-04-29T03:23:49.956Z,33.90
2019-04-29T03:26:17.897Z,33.91
2019-04-29T03:28:46.026Z,34.31
2019-04-29T03:31:14.010Z,34.58
2019-04-29T03:33:41.777Z,34.12
2019-04-29T03:36:09.792Z,34.81
2019-04-29T03:38:37.649Z,34.31
2019-04-29T03:41:05.661Z,34.51
2019-04-29T03:43:33.634Z,34.02
2019-04-29T03:46:01.582Z,34.85
2019-04-29T03:48:29.634Z,34.39
2019-04-29T03:50:57.578Z,34.62
2019-04-29T03:53:28.267Z,34.73
2019-04-29T03:55:56.644Z,34.82
2019-04-29T03:58:24.786Z,34.40
2019-04-29T04:00:59.037Z,34.18
2019-04-29T04:03:37.340Z,34.82
2019-04-29T04:06:16.645Z,34.71
2019-04-29T04:09:05.463Z,34.66
2019-04-29T04:11:23.324Z,34.50
2019-04-29T04:13:51.278Z,33.17
2019-04-29T04:16:27.777Z,35.16
2019-04-29T04:19:05.745Z,34.42
2019-04-29T04:21:33.836Z,34.81
2019-04-29T04:24:01.742Z,34.28
2019-04-29T04:26:29.742Z,34.49
2019-04-29T04:28:57.663Z,35.25
2019-04-29T04:31:25.798Z,35.03
2019-04-29T04:33:53.792Z,35.05
2019-04-29T04:36:21.673Z,34.53
2019-04-29T04:38:49.641Z,34.53
2019-04-29T04:41:17.552Z,34.88
2019-04-29T04:43:45.535Z,34.49
2019-04-29T04:46:13.410Z,34.83
2019-04-29T04:48:41.282Z,34.66
2019-04-29T04:51:09.343Z,34.27
2019-04-29T04:53:37.219Z,35.15
2019-04-29T04:56:05.132Z,35.42
2019-04-29T04:58:33.091Z,34.85
2019-04-29T05:01:00.866Z,34.24
2019-04-29T05:03:28.872Z,34.97
2019-04-29T05:05:56.739Z,35.09
2019-04-29T05:08:24.543Z,35.31
2019-04-29T05:10:52.414Z,35.01
2019-04-29T05:13:27.885Z,34.85
2019-04-29T05:15:49.806Z,34.69
2019-04-29T05:18:17.796Z,34.88
2019-04-29T05:20:45.556Z,34.90
2019-04-29T05:23:13.675Z,34.87
2019-04-29T05:25:41.549Z,35.24
2019-04-29T05:28:09.325Z,35.29
2019-04-29T05:30:37.075Z,35.05
2019-04-29T05:33:04.926Z,35.24
2019-04-29T05:35:41.514Z,34.99
2019-04-29T05:38:15.920Z,35.12
2019-04-29T05:40:49.152Z,35.32
2019-04-29T05:43:19.569Z,35.35
2019-04-29T05:45:57.224Z,35.13
2019-04-29T05:48:27.598Z,35.32
2019-04-29T05:51:07.030Z,35.21
2019-04-29T05:53:47.785Z,35.32
2019-04-29T05:56:14.110Z,35.13
2019-04-29T05:58:42.085Z,35.32
2019-04-29T06:01:14.845Z,35.31
2019-04-29T06:03:44.501Z,35.14
2019-04-29T06:06:12.527Z,35.36
2019-04-29T06:08:40.680Z,35.28
2019-04-29T06:11:08.629Z,35.28
2019-04-29T06:13:36.603Z,35.33
2019-04-29T06:16:04.362Z,35.30
2019-04-29T06:18:32.358Z,35.25
2019-04-29T06:21:08.885Z,35.40
2019-04-29T06:23:30.050Z,35.24
2019-04-29T06:25:57.914Z,35.26
2019-04-29T06:28:26.557Z,35.26
2019-04-29T06:30:55.509Z,35.30
2019-04-29T06:33:24.198Z,35.24
2019-04-29T06:35:53.110Z,35.25
2019-04-29T06:38:20.866Z,35.13
2019-04-29T06:40:49.009Z,35.16
2019-04-29T06:43:17.222Z,35.22
2019-04-29T06:45:45.510Z,35.23
2019-04-29T06:48:13.452Z,35.71
2019-04-29T06:50:41.455Z,35.67
2019-04-29T06:53:09.370Z,36.01
2019-04-29T06:55:37.348Z,36.31
2019-04-29T06:58:05.377Z,36.17
2019-04-29T07:00:33.449Z,36.13
2019-04-29T07:03:01.739Z,36.05
2019-04-29T07:05:29.677Z,35.98
2019-04-29T07:07:57.567Z,35.91
2019-04-29T07:10:27.062Z,35.80
2019-04-29T07:12:55.475Z,35.67
2019-04-29T07:15:23.364Z,35.68
2019-04-29T07:17:51.443Z,35.61
2019-04-29T07:20:19.499Z,35.49
2019-04-29T07:22:47.561Z,35.49
2019-04-29T07:25:15.651Z,35.40
2019-04-29T07:27:44.621Z,35.42
2019-04-29T07:30:12.734Z,35.32
2019-04-29T07:32:42.077Z,35.26
2019-04-29T07:35:11.531Z,35.21
2019-04-29T07:37:39.675Z,35.27
2019-04-29T07:40:09.144Z,35.21
2019-04-29T07:42:37.632Z,35.13
2019-04-29T07:45:44.137Z,35.20
2019-04-29T07:48:06.454Z,35.17
2019-04-29T07:50:33.964Z,35.20
2019-04-29T07:53:02.023Z,35.13
2019-04-29T07:55:31.012Z,35.10
2019-04-29T07:57:59.892Z,35.01
2019-04-29T08:00:32.010Z,35.05
2019-04-29T08:03:00.098Z,35.07
2019-04-29T08:05:29.244Z,34.83
2019-04-29T08:07:57.467Z,34.98
2019-04-29T08:10:28.558Z,35.12
2019-04-29T08:12:55.571Z,35.07
2019-04-29T08:15:23.565Z,34.97
2019-04-29T08:18:05.600Z,34.35
2019-04-29T08:20:21.344Z,34.32
2019-04-29T08:22:49.243Z,34.82
2019-04-29T08:27:46.204Z,34.72
2019-04-29T08:32:41.197Z,34.74
2019-04-29T08:35:09.274Z,34.64
2019-04-29T08:37:37.238Z,34.55
2019-04-29T08:40:16.010Z,34.61
2019-04-29T08:42:41.821Z,34.60
2019-04-29T08:45:34.764Z,34.46
2019-04-29T08:48:03.897Z,34.41
2019-04-29T08:50:31.862Z,34.51
2019-04-29T08:52:59.908Z,34.35
2019-04-29T08:55:30.882Z,34.35
2019-04-29T08:57:57.579Z,34.34
2019-04-29T09:00:26.473Z,34.24
2019-04-29T09:02:54.641Z,34.32
2019-04-29T09:05:22.645Z,34.32
2019-04-29T09:07:52.601Z,34.30
2019-04-29T09:10:20.847Z,34.00
2019-04-29T09:12:48.929Z,34.11
2019-04-29T09:15:16.953Z,34.16
2019-04-29T09:17:44.946Z,34.18
2019-04-29T09:20:13.020Z,34.06
2019-04-29T09:22:45.625Z,34.00
2019-04-29T09:25:28.056Z,33.99
2019-04-29T09:27:56.852Z,34.06
2019-04-29T09:30:24.870Z,34.05
2019-04-29T09:32:52.797Z,34.31
2019-04-29T09:35:20.682Z,34.56
2019-04-29T09:37:48.907Z,34.66
2019-04-29T09:40:18.821Z,34.60
2019-04-29T09:43:14.829Z,34.65
2019-04-29T09:45:38.737Z,34.60
2019-04-29T09:48:06.988Z,34.47
2019-04-29T09:50:39.213Z,34.44
2019-04-29T09:53:04.492Z,34.16
2019-04-29T09:55:35.624Z,34.19
2019-04-29T09:58:02.007Z,34.18
2019-04-29T10:00:41.829Z,34.07
2019-04-29T10:03:15.886Z,33.97
2019-04-29T10:05:46.623Z,34.09
2019-04-29T10:08:14.482Z,34.10
2019-04-29T10:10:42.264Z,34.10
2019-04-29T10:13:10.054Z,33.96
2019-04-29T10:16:00.337Z,34.00
2019-04-29T10:18:31.464Z,33.93
2019-04-29T10:21:04.058Z,33.88
2019-04-29T10:23:32.034Z,33.69
2019-04-29T10:25:59.907Z,33.86
2019-04-29T10:28:27.692Z,33.94
2019-04-29T10:30:55.679Z,33.46
2019-04-29T10:33:23.786Z,33.96
2019-04-29T10:35:51.579Z,33.89
2019-04-29T10:38:19.370Z,33.87
2019-04-29T10:41:13.224Z,33.92
2019-04-29T10:44:06.420Z,33.94
2019-04-29T10:46:52.160Z,33.89
2019-04-29T10:49:34.820Z,34.01
2019-04-29T10:52:04.514Z,33.89
2019-04-29T10:54:32.352Z,33.76
2019-04-29T10:57:00.270Z,33.79
2019-04-29T10:59:36.020Z,33.29
2019-04-29T11:02:34.569Z,33.85
2019-04-29T11:05:13.558Z,33.72
2019-04-29T11:07:41.610Z,33.57
2019-04-29T11:10:38.370Z,33.58
2019-04-29T11:13:06.344Z,33.72
2019-04-29T11:15:37.395Z,33.64
2019-04-29T11:18:05.658Z,33.63
2019-04-29T11:20:34.101Z,33.71
2019-04-29T11:23:20.951Z,33.66
2019-04-29T11:26:22.981Z,33.74
2019-04-29T11:28:52.261Z,33.67
2019-04-29T11:31:20.278Z,33.60
2019-04-29T11:34:22.542Z,33.59
2019-04-29T11:36:50.483Z,33.28
2019-04-29T11:39:18.377Z,33.59
2019-04-29T11:41:46.270Z,33.29
2019-04-29T11:44:14.170Z,33.55
2019-04-29T11:46:44.724Z,33.54
2019-04-29T11:49:13.268Z,33.40
2019-04-29T11:52:07.747Z,33.42
2019-04-29T11:54:17.899Z,33.13
2019-04-29T11:56:42.922Z,33.30
2019-04-29T11:59:19.132Z,33.41
2019-04-29T12:02:18.126Z,33.41
2019-04-29T12:05:08.939Z,33.33
2019-04-29T12:07:38.175Z,33.35
2019-04-29T12:10:06.476Z,33.46
2019-04-29T12:12:35.631Z,33.39
2019-04-29T12:15:21.310Z,33.44
2019-04-29T12:17:55.876Z,33.31
2019-04-29T12:20:31.140Z,33.47
2019-04-29T12:22:59.146Z,33.12
2019-04-29T12:25:27.902Z,33.39
2019-04-29T12:28:01.649Z,33.41
2019-04-29T12:30:34.455Z,33.43
2019-04-29T12:33:09.491Z,33.38
2019-04-29T12:35:51.698Z,33.40
2019-04-29T12:38:39.429Z,33.45
2019-04-29T12:41:20.189Z,33.41
2019-04-29T12:43:59.388Z,33.49
2019-04-29T12:46:29.352Z,33.18
2019-04-29T12:48:57.530Z,33.51
2019-04-29T12:51:25.492Z,33.45
2019-04-29T12:53:53.554Z,33.50
2019-04-29T12:56:31.218Z,33.58
2019-04-29T12:59:00.168Z,33.53
2019-04-29T13:01:55.832Z,33.60
2019-04-29T13:04:39.588Z,33.72
2019-04-29T13:07:22.098Z,33.65
2019-04-29T13:09:51.078Z,33.65
2019-04-29T13:12:20.074Z,33.50
2019-04-29T13:15:02.945Z,33.59
2019-04-29T13:17:34.139Z,33.63
2019-04-29T13:20:11.745Z,33.60
2019-04-29T13:22:37.370Z,33.63
2019-04-29T13:25:05.740Z,33.74
2019-04-29T13:27:33.793Z,33.73
2019-04-29T13:30:01.792Z,33.69
2019-04-29T13:32:31.206Z,33.63
2019-04-29T13:35:10.313Z,33.73
2019-04-29T13:37:35.073Z,33.72
2019-04-29T13:40:03.076Z,33.76
2019-04-29T13:42:31.435Z,33.87
2019-04-29T13:45:09.414Z,33.86
2019-04-29T13:47:51.358Z,33.90
2019-04-29T13:50:39.629Z,33.92
2019-04-29T13:52:56.449Z,33.86
2019-04-29T13:55:47.352Z,33.99
2019-04-29T13:57:55.696Z,33.76
2019-04-29T14:00:41.437Z,33.99
2019-04-29T14:03:16.445Z,34.01
2019-04-29T14:05:44.662Z,34.06
2019-04-29T14:08:13.016Z,34.08
2019-04-29T14:10:41.161Z,34.05
2019-04-29T14:13:15.177Z,34.16
2019-04-29T14:15:40.432Z,34.09
2019-04-29T14:18:11.575Z,34.02
2019-04-29T14:20:38.029Z,34.16
2019-04-29T14:23:06.014Z,34.08
2019-04-29T14:25:34.021Z,34.06
2019-04-29T14:28:01.924Z,34.14
2019-04-29T14:30:38.664Z,34.21
2019-04-29T14:33:01.891Z,34.28
2019-04-29T14:35:47.881Z,34.33
2019-04-29T14:38:13.372Z,34.26
2019-04-29T14:40:42.664Z,34.28
2019-04-29T14:43:32.103Z,34.30
2019-04-29T14:46:15.992Z,34.34
2019-04-29T14:48:46.148Z,34.25
2019-04-29T14:51:14.024Z,34.25
2019-04-29T14:53:55.287Z,34.26
2019-04-29T14:56:11.914Z,34.28
2019-04-29T14:58:39.876Z,34.29
2019-04-29T15:01:32.789Z,34.29
2019-04-29T15:04:17.823Z,34.30
2019-04-29T15:06:36.196Z,34.28
2019-04-29T15:09:05.801Z,34.34
2019-04-29T15:11:45.590Z,34.42
2019-04-29T15:14:49.722Z,34.36
2019-04-29T15:17:44.975Z,34.40
2019-04-29T15:20:34.240Z,34.46
2019-04-29T15:23:02.395Z,34.45
2019-04-29T15:25:30.187Z,34.42
2019-04-29T15:27:57.949Z,34.34
2019-04-29T15:30:25.924Z,34.47
2019-04-29T15:32:57.965Z,34.42
2019-04-29T15:35:24.277Z,34.46
2019-04-29T15:37:53.165Z,34.45
2019-04-29T15:40:26.269Z,34.44
2019-04-29T15:42:53.047Z,34.23
2019-04-29T15:45:20.299Z,34.47
2019-04-29T15:47:48.465Z,34.46
2019-04-29T15:50:19.585Z,34.50
2019-04-29T15:52:46.009Z,34.58
2019-04-29T15:55:13.778Z,34.19
2019-04-29T15:57:49.705Z,34.52
2019-04-29T16:00:21.483Z,34.60
2019-04-29T16:02:43.330Z,34.63
2019-04-29T16:05:28.075Z,34.73
2019-04-29T16:08:13.024Z,34.74
2019-04-29T16:10:57.838Z,34.78
2019-04-29T16:13:27.786Z,34.78
2019-04-29T16:15:54.974Z,34.79
2019-04-29T16:18:22.858Z,34.82
2019-04-29T16:20:54.139Z,34.86
2019-04-29T16:23:20.390Z,34.80
2019-04-29T16:25:52.446Z,34.75
2019-04-29T16:33:13.947Z,34.97
2019-04-29T16:38:11.520Z,34.99
2019-04-29T16:40:41.750Z,35.12
2019-04-29T16:43:15.536Z,35.18
2019-04-29T16:45:51.502Z,35.14
2019-04-29T16:48:19.179Z,35.24
2019-04-29T16:50:47.159Z,35.15
2019-04-29T16:53:15.046Z,35.22
2019-04-29T16:58:17.979Z,35.17
2019-04-29T17:00:46.651Z,35.19
2019-04-29T17:03:11.787Z,35.21
2019-04-29T17:05:39.776Z,35.27
2019-04-29T17:08:09.324Z,35.31
2019-04-29T17:10:56.128Z,35.23
2019-04-29T17:13:24.157Z,35.01
2019-04-29T17:15:53.756Z,35.21
2019-04-29T17:18:21.830Z,35.25
2019-04-29T17:20:49.712Z,35.20
2019-04-29T17:23:24.243Z,35.07
2019-04-29T17:25:48.050Z,35.26
2019-04-29T17:28:28.843Z,35.28
2019-04-29T17:31:13.600Z,35.31
2019-04-29T17:34:01.815Z,35.26
2019-04-29T17:35:14.349Z,35.14
2019-04-29T17:36:30.246Z,35.24
2019-04-29T17:38:58.138Z,35.22
2019-04-29T17:41:26.109Z,35.27
2019-04-29T17:44:14.549Z,35.26
2019-04-29T17:49:45.958Z,35.25
2019-04-29T17:57:49.542Z,35.27
2019-04-29T18:00:43.774Z,35.24
2019-04-29T18:03:25.249Z,35.24
2019-04-29T18:06:12.102Z,35.24
2019-04-29T18:08:59.126Z,35.32
2019-04-29T18:11:27.152Z,35.33
2019-04-29T18:13:57.022Z,35.29
2019-04-29T18:22:07.169Z,35.41
2019-04-29T18:24:55.382Z,35.43
2019-04-29T18:27:25.182Z,35.43
2019-04-29T18:29:55.048Z,35.37
2019-04-29T18:32:33.477Z,35.44
2019-04-29T18:34:53.212Z,35.36
2019-04-29T18:37:21.278Z,35.45
2019-04-29T18:39:49.354Z,35.47
2019-04-29T18:42:17.401Z,35.57
2019-04-29T18:45:05.092Z,35.61
2019-04-29T18:47:36.373Z,35.54
2019-04-29T18:50:05.025Z,35.61
2019-04-29T18:52:35.119Z,35.47
2019-04-29T18:55:05.782Z,35.53
2019-04-29T18:57:35.677Z,35.38
2019-04-29T19:00:11.337Z,35.71
2019-04-29T19:02:44.935Z,35.78
2019-04-29T19:05:27.778Z,35.72
2019-04-29T19:07:55.405Z,35.72
2019-04-29T19:10:32.168Z,35.78
2019-04-29T19:12:58.186Z,35.71
2019-04-29T19:15:21.729Z,35.69
2019-04-29T19:17:59.169Z,35.77
2019-04-29T19:20:19.926Z,35.84
2019-04-29T19:22:47.822Z,35.76
2019-04-29T19:25:15.774Z,35.85
2019-04-29T19:27:45.398Z,35.91
2019-04-29T19:33:02.176Z,35.73
2019-04-29T19:35:37.024Z,35.76
2019-04-29T19:37:59.900Z,35.83
2019-04-29T19:40:47.038Z,35.80
2019-04-29T19:46:02.015Z,35.89
2019-04-29T19:48:29.851Z,35.84
2019-04-29T19:51:13.892Z,35.82
2019-04-29T19:53:27.635Z,35.93
2019-04-29T19:56:03.498Z,35.86
2019-04-29T19:58:32.281Z,35.89
2019-04-29T20:01:11.847Z,35.81
2019-04-29T20:08:54.061Z,36.01
2019-04-29T20:11:17.917Z,36.18
2019-04-29T20:14:01.180Z,36.17
2019-04-29T20:16:42.894Z,36.08
2019-04-29T20:19:22.207Z,36.08
2019-04-29T20:21:53.536Z,36.10
2019-04-29T20:24:24.363Z,36.19
2019-04-29T20:26:53.050Z,36.09
2019-04-29T20:29:21.438Z,36.04
2019-04-29T20:32:08.712Z,36.16
2019-04-29T20:34:36.949Z,36.12
2019-04-29T20:37:10.772Z,36.06
2019-04-29T20:39:36.234Z,36.14
2019-04-29T20:42:10.216Z,36.20
2019-04-29T20:44:36.963Z,36.24
2019-04-29T20:47:19.671Z,36.26
2019-04-29T20:49:39.415Z,36.24
2019-04-29T20:52:25.797Z,36.23
2019-04-29T20:55:00.850Z,36.11
2019-04-29T20:57:25.683Z,36.25
2019-04-29T20:59:55.082Z,36.36
2019-04-29T21:02:31.407Z,36.40
2019-04-29T21:04:57.845Z,36.33
2019-04-29T21:07:25.526Z,36.42
2019-04-29T21:09:53.397Z,36.11
2019-04-29T21:12:40.503Z,36.37
2019-04-29T21:18:00.910Z,36.34
2019-04-29T21:20:29.028Z,35.91
2019-04-29T21:23:00.888Z,36.38
2019-04-29T21:25:29.504Z,36.52
2019-04-29T21:27:58.127Z,36.42
2019-04-29T21:30:34.978Z,36.54
2019-04-29T21:32:56.388Z,36.40
2019-04-29T21:38:26.014Z,36.40
2019-04-29T21:43:53.442Z,36.44
2019-04-29T21:46:24.881Z,36.45
2019-04-29T21:48:48.361Z,36.49
2019-04-29T21:51:17.482Z,36.42
2019-04-29T21:53:46.244Z,36.54
2019-04-29T21:56:15.867Z,36.49
2019-04-29T21:58:43.925Z,36.31
2019-04-29T22:01:11.994Z,36.52
2019-04-29T22:03:39.799Z,36.50
2019-04-29T22:06:07.865Z,36.51
2019-04-29T22:08:35.755Z,36.49
2019-04-29T22:11:05.224Z,36.50
2019-04-29T22:16:22.292Z,36.54
2019-04-29T22:18:52.031Z,36.41
2019-04-29T22:21:21.882Z,36.35
2019-04-29T22:23:50.947Z,36.50
2019-04-29T22:26:23.218Z,36.49
2019-04-29T22:28:53.381Z,36.52
2019-04-29T22:31:19.468Z,36.50
2019-04-29T22:33:48.935Z,36.49
2019-04-29T22:36:18.247Z,36.51
2019-04-29T22:38:48.605Z,36.47
2019-04-29T22:46:35.847Z,36.53
2019-04-29T22:49:05.734Z,36.53
2019-04-29T22:51:35.427Z,36.63
2019-04-29T22:54:03.724Z,36.61
2019-04-29T22:56:31.844Z,36.56
2019-04-29T23:01:35.780Z,36.65
2019-04-29T23:04:02.966Z,36.62
2019-04-29T23:06:31.031Z,36.66
2019-04-29T23:08:59.278Z,36.67
2019-04-29T23:11:27.716Z,36.74
2019-04-29T23:13:55.666Z,36.70
2019-04-29T23:16:23.736Z,36.74
2019-04-29T23:18:51.873Z,36.76
2019-04-29T23:21:43.253Z,36.73
2019-04-29T23:26:51.609Z,36.75
2019-04-29T23:29:19.573Z,36.70
2019-04-29T23:31:47.638Z,36.68
2019-04-29T23:34:15.659Z,36.72
2019-04-29T23:36:44.616Z,36.76
2019-04-29T23:39:12.651Z,36.77
2019-04-29T23:41:40.693Z,36.75
2019-04-29T23:44:08.949Z,36.88
2019-04-29T23:46:37.210Z,36.77
2019-04-29T23:49:06.793Z,36.81
2019-04-29T23:51:37.792Z,36.74
2019-04-29T23:54:07.853Z,36.88
2019-04-29T23:56:46.267Z,36.81
2019-04-29T23:59:20.600Z,36.88
